createdAt,value
2019-05-30T00:01:28.926Z,4.30
2019-05-30T00:03:56.023Z,4.60
2019-05-30T00:06:22.969Z,4.10
2019-05-30T00:08:49.790Z,4.27
2019-05-30T00:11:16.197Z,4.20
2019-05-30T00:13:42.995Z,4.87
2019-05-30T00:16:09.540Z,4.60
2019-05-30T00:18:35.945Z,4.83
2019-05-30T00:21:02.926Z,4.40
2019-05-30T00:23:29.918Z,4.90
2019-05-30T00:25:57.189Z,4.73
2019-05-30T00:28:24.066Z,4.60
2019-05-30T00:30:50.538Z,4.90
2019-05-30T00:33:17.050Z,4.53
2019-05-30T00:35:43.662Z,5.50
2019-05-30T00:38:10.124Z,5.30
2019-05-30T00:40:36.645Z,5.47
2019-05-30T00:43:04.212Z,5.43
2019-05-30T00:45:31.058Z,5.23
2019-05-30T00:47:58.166Z,5.03
2019-05-30T00:50:24.624Z,5.07
2019-05-30T00:52:51.247Z,5.10
2019-05-30T00:55:17.754Z,4.93
2019-05-30T00:57:44.160Z,4.83
2019-05-30T01:00:12.222Z,4.83
2019-05-30T01:02:40.119Z,4.60
2019-05-30T01:05:08.024Z,4.80
2019-05-30T01:07:36.594Z,4.50
2019-05-30T01:10:07.767Z,4.67
2019-05-30T01:12:34.245Z,4.47
2019-05-30T01:15:01.192Z,4.33
2019-05-30T01:17:28.107Z,4.50
2019-05-30T01:19:54.610Z,4.70
2019-05-30T01:22:21.157Z,4.10
2019-05-30T01:24:47.555Z,4.67
2019-05-30T01:27:14.161Z,4.77
2019-05-30T01:29:40.834Z,4.73
2019-05-30T01:32:25.599Z,4.60
2019-05-30T01:34:52.133Z,5.03
2019-05-30T01:37:18.562Z,5.03
2019-05-30T01:39:44.960Z,5.23
2019-05-30T01:42:11.526Z,4.73
2019-05-30T01:44:37.926Z,4.30
2019-05-30T01:47:06.348Z,5.00
2019-05-30T01:49:32.999Z,4.60
2019-05-30T01:52:00.324Z,4.30
2019-05-30T01:54:26.975Z,4.93
2019-05-30T01:56:55.309Z,4.97
2019-05-30T01:59:21.682Z,4.47
2019-05-30T02:01:48.143Z,4.57
2019-05-30T02:04:14.741Z,4.83
2019-05-30T02:06:41.506Z,4.87
2019-05-30T02:09:09.231Z,4.73
2019-05-30T02:11:36.406Z,5.53
2019-05-30T02:14:03.813Z,5.37
2019-05-30T02:16:30.590Z,5.33
2019-05-30T02:18:57.208Z,6.27
2019-05-30T02:21:23.705Z,6.00
2019-05-30T02:23:50.274Z,6.63
2019-05-30T02:26:16.683Z,5.67
2019-05-30T02:28:43.097Z,6.17
2019-05-30T02:31:12.122Z,5.80
2019-05-30T02:33:38.080Z,5.67
2019-05-30T02:36:06.305Z,5.90
2019-05-30T02:38:32.840Z,5.70
2019-05-30T02:41:01.119Z,5.50
2019-05-30T02:43:27.543Z,5.73
2019-05-30T02:45:54.204Z,5.83
2019-05-30T02:48:20.709Z,5.53
2019-05-30T02:50:49.070Z,5.90
2019-05-30T02:53:15.486Z,5.67
2019-05-30T02:55:42.798Z,5.80
2019-05-30T02:58:10.558Z,5.33
2019-05-30T03:00:37.875Z,6.63
2019-05-30T03:03:06.736Z,13.17
2019-05-30T03:05:33.305Z,14.27
2019-05-30T03:08:02.076Z,12.53
2019-05-30T03:10:29.346Z,11.57
2019-05-30T03:12:56.598Z,11.70
2019-05-30T03:15:23.507Z,10.00
2019-05-30T03:17:51.857Z,9.73
2019-05-30T03:20:23.078Z,6.63
2019-05-30T03:22:47.947Z,7.40
2019-05-30T03:25:16.133Z,5.93
2019-05-30T03:27:43.045Z,6.60
2019-05-30T03:30:21.831Z,6.67
2019-05-30T03:33:04.008Z,6.00
2019-05-30T03:35:15.010Z,6.83
2019-05-30T03:37:35.503Z,5.87
2019-05-30T03:40:04.707Z,6.37
2019-05-30T03:42:31.909Z,6.20
2019-05-30T03:44:58.469Z,6.40
2019-05-30T03:47:28.696Z,6.13
2019-05-30T03:49:56.552Z,7.97
2019-05-30T03:52:23.878Z,7.93
2019-05-30T03:54:51.627Z,8.87
2019-05-30T03:57:36.160Z,9.10
2019-05-30T04:00:41.088Z,9.83
2019-05-30T04:03:30.480Z,9.40
2019-05-30T04:06:00.704Z,9.73
2019-05-30T04:08:33.763Z,6.90
2019-05-30T04:11:03.970Z,7.40
2019-05-30T04:13:39.979Z,7.30
2019-05-30T04:16:07.339Z,7.93
2019-05-30T04:18:35.240Z,7.37
2019-05-30T04:21:01.680Z,7.33
2019-05-30T04:23:28.183Z,6.30
2019-05-30T04:25:54.644Z,7.10
2019-05-30T04:28:21.053Z,6.97
2019-05-30T04:30:48.906Z,7.17
2019-05-30T04:33:26.205Z,7.57
2019-05-30T04:35:43.539Z,6.33
2019-05-30T04:38:10.568Z,6.13
2019-05-30T04:40:36.953Z,5.47
2019-05-30T04:43:03.870Z,4.90
2019-05-30T04:45:30.317Z,4.57
2019-05-30T04:47:56.716Z,4.10
2019-05-30T04:50:23.317Z,5.13
2019-05-30T04:52:49.753Z,5.00
2019-05-30T04:55:20.010Z,3.60
2019-05-30T04:57:44.736Z,4.97
2019-05-30T05:00:12.931Z,4.37
2019-05-30T05:02:39.688Z,3.70
2019-05-30T05:05:07.581Z,3.70
2019-05-30T05:07:34.150Z,3.90
2019-05-30T05:10:01.078Z,4.03
2019-05-30T05:12:27.592Z,4.70
2019-05-30T05:14:54.134Z,4.77
2019-05-30T05:17:21.020Z,6.00
2019-05-30T05:19:47.462Z,4.63
2019-05-30T05:22:14.839Z,4.77
2019-05-30T05:24:41.986Z,5.40
2019-05-30T05:27:09.981Z,5.10
2019-05-30T05:29:36.900Z,4.60
2019-05-30T05:32:03.725Z,5.00
2019-05-30T05:34:30.255Z,4.90
2019-05-30T05:36:58.612Z,4.77
2019-05-30T05:39:25.875Z,4.57
2019-05-30T05:41:52.367Z,4.27
2019-05-30T05:44:18.930Z,3.97
2019-05-30T05:46:45.332Z,4.10
2019-05-30T05:49:11.884Z,4.07
2019-05-30T05:51:38.356Z,4.27
2019-05-30T05:54:05.247Z,3.30
2019-05-30T05:56:31.649Z,2.60
2019-05-30T05:58:58.310Z,3.40
2019-05-30T06:01:25.441Z,3.37
2019-05-30T06:03:51.965Z,3.60
2019-05-30T06:06:19.203Z,4.00
2019-05-30T06:08:45.885Z,3.80
2019-05-30T06:11:12.558Z,3.07
2019-05-30T06:13:39.171Z,2.63
2019-05-30T06:16:05.582Z,2.33
2019-05-30T06:18:32.132Z,2.60
2019-05-30T06:20:58.628Z,3.50
2019-05-30T06:23:25.704Z,2.93
2019-05-30T06:25:52.398Z,3.30
2019-05-30T06:28:19.960Z,3.23
2019-05-30T06:30:46.783Z,2.93
2019-05-30T06:33:13.661Z,4.20
2019-05-30T06:35:41.298Z,2.70
2019-05-30T06:38:07.831Z,2.87
2019-05-30T06:40:34.730Z,3.50
2019-05-30T06:43:01.129Z,3.50
2019-05-30T06:45:28.370Z,2.80
2019-05-30T06:47:55.202Z,2.27
2019-05-30T06:50:22.556Z,2.70
2019-05-30T06:52:49.295Z,2.63
2019-05-30T06:55:15.903Z,2.40
2019-05-30T06:57:42.405Z,2.17
2019-05-30T07:00:09.459Z,8.73
2019-05-30T07:02:36.343Z,3.07
2019-05-30T07:05:07.809Z,2.90
2019-05-30T07:07:34.745Z,2.43
2019-05-30T07:10:06.996Z,2.90
2019-05-30T07:12:34.267Z,2.47
2019-05-30T07:15:00.817Z,2.20
2019-05-30T07:17:27.444Z,2.40
2019-05-30T07:19:54.246Z,2.53
2019-05-30T07:22:20.799Z,2.27
2019-05-30T07:24:47.211Z,2.50
2019-05-30T07:27:13.727Z,2.40
2019-05-30T07:29:40.174Z,2.40
2019-05-30T07:32:06.782Z,2.70
2019-05-30T07:34:34.272Z,2.70
2019-05-30T07:37:01.262Z,2.73
2019-05-30T07:39:32.803Z,2.97
2019-05-30T07:42:05.662Z,2.73
2019-05-30T07:44:24.578Z,3.83
2019-05-30T07:46:51.134Z,3.47
2019-05-30T07:49:18.191Z,3.10
2019-05-30T07:51:44.710Z,3.13
2019-05-30T07:54:11.146Z,3.57
2019-05-30T07:56:38.798Z,3.00
2019-05-30T07:59:05.571Z,3.47
2019-05-30T08:01:32.577Z,3.00
2019-05-30T08:03:59.553Z,3.50
2019-05-30T08:06:27.406Z,3.10
2019-05-30T08:08:54.258Z,2.90
2019-05-30T08:11:20.668Z,3.40
2019-05-30T08:13:47.072Z,3.20
2019-05-30T08:16:13.698Z,3.03
2019-05-30T08:18:40.196Z,6.33
2019-05-30T08:21:06.809Z,3.10
2019-05-30T08:23:34.256Z,2.40
2019-05-30T08:26:00.934Z,2.70
2019-05-30T08:28:28.657Z,2.47
2019-05-30T08:30:56.961Z,2.87
2019-05-30T08:33:23.860Z,2.63
2019-05-30T08:35:50.555Z,3.37
2019-05-30T08:38:17.762Z,2.43
2019-05-30T08:40:44.155Z,2.40
2019-05-30T08:43:10.671Z,2.37
2019-05-30T08:45:37.998Z,2.53
2019-05-30T08:48:05.031Z,2.30
2019-05-30T08:50:32.449Z,2.30
2019-05-30T08:52:58.837Z,2.00
2019-05-30T08:55:25.318Z,2.07
2019-05-30T08:57:51.930Z,2.20
2019-05-30T09:00:19.837Z,1.83
2019-05-30T09:02:46.921Z,1.87
2019-05-30T09:05:14.811Z,1.90
2019-05-30T09:07:42.885Z,1.77
2019-05-30T09:10:10.435Z,1.80
2019-05-30T09:12:38.565Z,2.07
2019-05-30T09:15:10.512Z,2.20
2019-05-30T09:17:38.735Z,2.10
2019-05-30T09:20:07.251Z,2.10
2019-05-30T09:22:34.214Z,2.10
2019-05-30T09:25:00.818Z,2.30
2019-05-30T09:27:27.320Z,1.90
2019-05-30T09:29:53.999Z,2.00
2019-05-30T09:32:20.602Z,2.27
2019-05-30T09:34:47.129Z,2.40
2019-05-30T09:37:13.730Z,2.30
2019-05-30T09:39:41.566Z,2.20
2019-05-30T09:42:08.487Z,2.10
2019-05-30T09:44:35.111Z,1.87
2019-05-30T09:47:01.467Z,2.60
2019-05-30T09:49:28.346Z,2.50
2019-05-30T09:51:54.891Z,2.67
2019-05-30T09:54:21.827Z,2.60
2019-05-30T09:56:48.527Z,3.10
2019-05-30T09:59:15.657Z,2.50
2019-05-30T10:01:43.068Z,2.80
2019-05-30T10:04:11.019Z,2.55
2019-05-30T10:06:38.591Z,2.40
2019-05-30T10:09:07.500Z,2.37
2019-05-30T10:11:34.010Z,2.30
2019-05-30T10:14:00.575Z,2.50
2019-05-30T10:16:27.020Z,2.58
2019-05-30T10:18:53.521Z,2.37
2019-05-30T10:21:20.078Z,2.42
2019-05-30T10:23:47.551Z,2.30
2019-05-30T10:26:14.689Z,2.30
2019-05-30T10:28:41.157Z,2.50
2019-05-30T10:31:07.791Z,2.33
2019-05-30T10:33:34.339Z,2.33
2019-05-30T10:36:00.769Z,2.27
2019-05-30T10:38:27.404Z,2.20
2019-05-30T10:40:54.105Z,2.22
2019-05-30T10:43:20.832Z,2.20
2019-05-30T10:45:47.896Z,2.10
2019-05-30T10:48:15.728Z,2.55
2019-05-30T10:50:42.432Z,2.22
2019-05-30T10:53:09.489Z,2.17
2019-05-30T10:55:36.349Z,2.17
2019-05-30T10:58:03.636Z,2.65
2019-05-30T11:00:50.872Z,2.10
2019-05-30T11:03:19.935Z,2.20
2019-05-30T11:05:50.704Z,2.37
2019-05-30T11:08:21.318Z,2.20
2019-05-30T11:10:48.524Z,2.37
2019-05-30T11:13:18.311Z,2.00
2019-05-30T11:15:45.117Z,2.55
2019-05-30T11:18:13.240Z,2.20
2019-05-30T11:20:40.626Z,2.05
2019-05-30T11:23:08.506Z,1.75
2019-05-30T11:25:35.493Z,1.87
2019-05-30T11:28:03.710Z,2.00
2019-05-30T11:30:30.858Z,1.57
2019-05-30T11:32:57.408Z,1.45
2019-05-30T11:35:24.074Z,2.00
2019-05-30T11:37:51.039Z,1.60
2019-05-30T11:40:18.653Z,1.52
2019-05-30T11:42:45.269Z,1.60
2019-05-30T11:45:13.029Z,1.40
2019-05-30T11:47:39.703Z,1.62
2019-05-30T11:50:07.025Z,1.72
2019-05-30T11:52:33.829Z,1.40
2019-05-30T11:55:00.504Z,1.70
2019-05-30T11:57:26.930Z,1.87
2019-05-30T11:59:54.223Z,1.40
2019-05-30T12:02:21.163Z,1.35
2019-05-30T12:04:48.191Z,1.30
2019-05-30T12:07:17.910Z,1.52
2019-05-30T12:09:44.651Z,1.40
2019-05-30T12:12:11.205Z,1.10
2019-05-30T12:14:37.925Z,1.10
2019-05-30T12:17:04.610Z,1.32
2019-05-30T12:19:31.419Z,1.20
2019-05-30T12:21:57.910Z,1.32
2019-05-30T12:24:24.549Z,1.60
2019-05-30T12:26:51.853Z,1.50
2019-05-30T12:29:18.598Z,1.40
2019-05-30T12:31:45.174Z,1.37
2019-05-30T12:34:12.150Z,1.20
2019-05-30T12:36:38.728Z,1.40
2019-05-30T12:39:06.421Z,1.20
2019-05-30T12:41:32.974Z,1.22
2019-05-30T12:43:59.721Z,1.07
2019-05-30T12:46:26.225Z,1.20
2019-05-30T12:48:53.258Z,1.42
2019-05-30T12:51:20.337Z,1.80
2019-05-30T12:53:47.035Z,1.37
2019-05-30T12:56:13.675Z,1.35
2019-05-30T12:58:40.381Z,1.10
2019-05-30T13:01:07.100Z,1.20
2019-05-30T13:03:35.967Z,1.20
2019-05-30T13:06:03.487Z,0.82
2019-05-30T13:08:30.158Z,1.17
2019-05-30T13:10:57.377Z,1.10
2019-05-30T13:13:24.336Z,1.00
2019-05-30T13:15:50.751Z,1.20
2019-05-30T13:18:17.419Z,1.10
2019-05-30T13:20:44.078Z,1.12
2019-05-30T13:23:10.693Z,2.27
2019-05-30T13:25:37.785Z,1.10
2019-05-30T13:28:08.118Z,1.25
2019-05-30T13:30:34.164Z,1.07
2019-05-30T13:33:03.025Z,1.10
2019-05-30T13:35:29.897Z,0.82
2019-05-30T13:37:57.086Z,1.20
2019-05-30T13:40:25.548Z,1.05
2019-05-30T13:42:52.530Z,1.10
2019-05-30T13:45:19.146Z,1.22
2019-05-30T13:47:45.749Z,1.07
2019-05-30T13:50:14.815Z,1.00
2019-05-30T13:52:43.426Z,1.30
2019-05-30T13:55:11.057Z,1.07
2019-05-30T13:57:37.617Z,1.00
2019-05-30T14:00:06.423Z,0.90
2019-05-30T14:02:33.038Z,8.15
2019-05-30T14:05:00.005Z,6.70
2019-05-30T14:07:27.036Z,1.50
2019-05-30T14:09:53.758Z,0.93
2019-05-30T14:12:20.634Z,0.90
2019-05-30T14:14:47.310Z,1.07
2019-05-30T14:17:15.317Z,1.20
2019-05-30T14:19:41.830Z,1.12
2019-05-30T14:22:09.400Z,1.10
2019-05-30T14:24:35.816Z,0.90
2019-05-30T14:27:03.450Z,1.07
2019-05-30T14:29:30.316Z,1.05
2019-05-30T14:31:56.807Z,1.10
2019-05-30T14:34:24.324Z,1.00
2019-05-30T14:36:51.039Z,4.30
2019-05-30T14:39:17.464Z,1.65
2019-05-30T14:41:44.323Z,1.10
2019-05-30T14:44:10.838Z,1.20
2019-05-30T14:46:37.410Z,1.20
2019-05-30T14:49:04.461Z,1.40
2019-05-30T14:51:31.223Z,1.10
2019-05-30T14:53:57.716Z,1.00
2019-05-30T14:56:24.170Z,1.02
2019-05-30T14:58:50.690Z,1.00
2019-05-30T15:01:17.512Z,1.00
2019-05-30T15:03:44.445Z,1.35
2019-05-30T15:06:13.335Z,1.07
2019-05-30T15:08:39.165Z,1.40
2019-05-30T15:11:05.737Z,1.37
2019-05-30T15:13:32.252Z,1.10
2019-05-30T15:15:58.669Z,2.92
2019-05-30T15:18:25.403Z,1.30
2019-05-30T15:20:52.049Z,0.95
2019-05-30T15:23:18.577Z,1.60
2019-05-30T15:25:45.440Z,1.00
2019-05-30T15:28:12.232Z,1.27
2019-05-30T15:30:39.358Z,1.37
2019-05-30T15:33:12.624Z,1.40
2019-05-30T15:35:39.494Z,1.37
2019-05-30T15:38:06.742Z,1.00
2019-05-30T15:40:33.858Z,1.25
2019-05-30T15:43:00.268Z,1.47
2019-05-30T15:45:26.791Z,1.60
2019-05-30T15:47:53.229Z,1.47
2019-05-30T15:50:19.944Z,15.58
2019-05-30T15:52:47.647Z,2.12
2019-05-30T15:55:15.282Z,5.25
2019-05-30T15:57:42.201Z,2.77
2019-05-30T16:00:12.252Z,2.47
2019-05-30T16:02:39.725Z,1.90
2019-05-30T16:05:06.687Z,1.92
2019-05-30T16:07:33.316Z,2.20
2019-05-30T16:09:59.852Z,2.60
2019-05-30T16:12:28.823Z,2.58
2019-05-30T16:14:57.692Z,2.65
2019-05-30T16:17:24.073Z,4.40
2019-05-30T16:19:54.626Z,3.17
2019-05-30T16:22:22.559Z,2.65
2019-05-30T16:24:50.115Z,2.60
2019-05-30T16:27:17.689Z,2.52
2019-05-30T16:29:44.442Z,2.17
2019-05-30T16:32:10.956Z,3.27
2019-05-30T16:34:39.300Z,2.10
2019-05-30T16:37:05.800Z,2.75
2019-05-30T16:39:34.146Z,2.20
2019-05-30T16:42:02.417Z,2.20
2019-05-30T16:44:28.853Z,2.27
2019-05-30T16:46:56.241Z,2.60
2019-05-30T16:49:24.563Z,3.72
2019-05-30T16:51:51.427Z,2.25
2019-05-30T16:54:19.183Z,2.20
2019-05-30T16:56:45.950Z,2.22
2019-05-30T16:59:13.100Z,2.60
2019-05-30T17:01:39.575Z,12.93
2019-05-30T17:04:06.137Z,43.23
2019-05-30T17:06:33.557Z,8.68
2019-05-30T17:09:00.267Z,2.70
2019-05-30T17:11:26.665Z,2.70
2019-05-30T17:13:53.381Z,2.98
2019-05-30T17:16:20.163Z,2.60
2019-05-30T17:18:46.794Z,2.85
2019-05-30T17:21:13.322Z,3.15
2019-05-30T17:23:39.899Z,4.00
2019-05-30T17:26:06.571Z,5.45
2019-05-30T17:28:33.761Z,3.95
2019-05-30T17:31:00.393Z,3.47
2019-05-30T17:33:28.173Z,3.30
2019-05-30T17:35:55.147Z,4.45
2019-05-30T17:38:22.400Z,3.27
2019-05-30T17:40:49.811Z,3.42
2019-05-30T17:43:18.822Z,2.70
2019-05-30T17:45:44.643Z,3.47
2019-05-30T17:48:16.481Z,3.00
2019-05-30T17:50:40.048Z,2.60
2019-05-30T17:53:06.719Z,2.95
2019-05-30T17:55:33.447Z,2.47
2019-05-30T17:57:59.890Z,2.60
2019-05-30T18:00:26.870Z,3.10
2019-05-30T18:02:53.840Z,3.15
2019-05-30T18:05:20.845Z,3.00
2019-05-30T18:07:48.585Z,2.60
2019-05-30T18:10:16.013Z,3.02
2019-05-30T18:12:42.623Z,3.20
2019-05-30T18:15:15.615Z,2.90
2019-05-30T18:17:43.462Z,2.80
2019-05-30T18:20:10.843Z,2.62
2019-05-30T18:22:38.744Z,3.10
2019-05-30T18:25:08.005Z,3.30
2019-05-30T18:27:34.545Z,2.95
2019-05-30T18:33:30.292Z,2.80
2019-05-30T18:35:57.159Z,3.10
2019-05-30T18:38:24.754Z,4.17
2019-05-30T18:40:51.489Z,4.20
2019-05-30T18:43:19.391Z,3.77
2019-05-30T18:45:47.815Z,3.50
2019-05-30T18:48:15.571Z,3.60
2019-05-30T18:50:42.171Z,3.93
2019-05-30T18:53:08.819Z,3.30
2019-05-30T18:55:35.494Z,3.40
2019-05-30T18:58:07.330Z,3.85
2019-05-30T19:00:33.244Z,4.45
2019-05-30T19:03:00.392Z,3.67
2019-05-30T19:05:27.010Z,4.13
2019-05-30T19:07:53.721Z,3.80
2019-05-30T19:10:20.618Z,3.40
2019-05-30T19:12:47.368Z,3.33
2019-05-30T19:15:15.292Z,3.50
2019-05-30T19:17:42.108Z,3.70
2019-05-30T19:20:10.192Z,3.53
2019-05-30T19:22:36.766Z,3.77
2019-05-30T19:25:06.139Z,3.63
2019-05-30T19:27:35.416Z,4.00
2019-05-30T19:30:01.132Z,4.23
2019-05-30T19:32:28.587Z,3.77
2019-05-30T19:34:56.333Z,4.37
2019-05-30T19:37:23.161Z,3.97
2019-05-30T19:39:50.448Z,3.80
2019-05-30T19:42:17.494Z,3.80
2019-05-30T19:44:45.671Z,4.00
2019-05-30T19:47:12.274Z,4.17
2019-05-30T19:49:39.374Z,4.00
2019-05-30T19:52:06.777Z,4.00
2019-05-30T19:54:33.441Z,5.43
2019-05-30T19:57:00.476Z,3.97
2019-05-30T19:59:27.293Z,4.07
2019-05-30T20:01:53.919Z,4.17
2019-05-30T20:04:20.774Z,4.20
2019-05-30T20:06:47.334Z,4.53
2019-05-30T20:09:13.890Z,4.67
2019-05-30T20:11:41.533Z,4.00
2019-05-30T20:14:10.082Z,4.17
2019-05-30T20:16:37.749Z,4.43
2019-05-30T20:19:05.927Z,4.70
2019-05-30T20:21:33.923Z,3.93
2019-05-30T20:24:02.322Z,4.20
2019-05-30T20:26:28.883Z,4.43
2019-05-30T20:28:55.529Z,4.57
2019-05-30T20:31:22.634Z,4.50
2019-05-30T20:33:49.411Z,4.57
2019-05-30T20:36:17.110Z,4.80
2019-05-30T20:38:43.612Z,5.30
2019-05-30T20:41:10.358Z,4.87
2019-05-30T20:43:37.043Z,4.93
2019-05-30T20:46:03.729Z,4.97
2019-05-30T20:48:30.278Z,5.57
2019-05-30T20:50:56.868Z,5.70
2019-05-30T20:53:24.615Z,5.27
2019-05-30T20:55:53.137Z,5.03
2019-05-30T20:58:19.723Z,4.70
2019-05-30T21:00:47.134Z,4.93
2019-05-30T21:03:13.745Z,5.90
2019-05-30T21:05:42.191Z,5.73
2019-05-30T21:08:08.803Z,5.33
2019-05-30T21:10:37.362Z,5.27
2019-05-30T21:13:04.687Z,5.70
2019-05-30T21:15:35.251Z,5.43
2019-05-30T21:18:05.559Z,5.70
2019-05-30T21:20:32.060Z,5.97
2019-05-30T21:23:00.193Z,5.63
2019-05-30T21:25:26.917Z,5.60
2019-05-30T21:27:53.964Z,6.43
2019-05-30T21:30:21.184Z,6.67
2019-05-30T21:32:48.603Z,6.30
2019-05-30T21:35:16.160Z,6.93
2019-05-30T21:37:43.731Z,6.57
2019-05-30T21:40:11.482Z,6.60
2019-05-30T21:42:55.759Z,6.00
2019-05-30T21:45:07.053Z,6.03
2019-05-30T21:47:34.575Z,5.80
2019-05-30T21:50:02.670Z,6.40
2019-05-30T21:52:29.408Z,6.17
2019-05-30T21:54:56.351Z,6.73
2019-05-30T21:57:23.247Z,6.57
2019-05-30T21:59:50.763Z,6.60
2019-05-30T22:02:17.553Z,7.07
2019-05-30T22:04:44.431Z,6.50
2019-05-30T22:07:11.906Z,6.93
2019-05-30T22:09:38.913Z,7.53
2019-05-30T22:12:05.609Z,6.60
2019-05-30T22:14:32.231Z,7.80
2019-05-30T22:16:58.807Z,7.47
2019-05-30T22:19:25.319Z,8.03
2019-05-30T22:21:52.366Z,7.90
2019-05-30T22:24:19.685Z,8.30
2019-05-30T22:26:46.370Z,7.57
2019-05-30T22:29:13.840Z,8.07
2019-05-30T22:31:40.461Z,8.53
2019-05-30T22:34:07.000Z,8.10
2019-05-30T22:36:33.624Z,8.17
2019-05-30T22:39:00.063Z,7.93
2019-05-30T22:41:26.736Z,8.27
2019-05-30T22:43:53.605Z,7.40
2019-05-30T22:46:20.313Z,7.83
2019-05-30T22:48:46.827Z,8.37
2019-05-30T22:51:13.277Z,7.53
2019-05-30T22:53:39.745Z,7.50
2019-05-30T22:56:07.627Z,7.50
2019-05-30T22:58:34.218Z,6.93
2019-05-30T23:01:01.837Z,7.60
2019-05-30T23:03:28.320Z,7.30
2019-05-30T23:05:54.941Z,7.47
2019-05-30T23:08:21.565Z,7.90
2019-05-30T23:10:49.552Z,7.97
2019-05-30T23:13:16.498Z,8.20
2019-05-30T23:15:43.199Z,8.07
2019-05-30T23:18:09.752Z,8.30
2019-05-30T23:20:36.394Z,8.03
2019-05-30T23:23:03.120Z,7.80
2019-05-30T23:25:29.758Z,9.60
2019-05-30T23:27:56.158Z,8.37
2019-05-30T23:30:23.231Z,8.30
2019-05-30T23:32:50.422Z,8.17
2019-05-30T23:35:17.368Z,8.83
2019-05-30T23:37:43.929Z,9.13
2019-05-30T23:40:11.551Z,9.10
2019-05-30T23:42:39.423Z,8.40
2019-05-30T23:45:07.427Z,9.03
2019-05-30T23:47:33.982Z,8.83
2019-05-30T23:50:00.769Z,8.17
2019-05-30T23:52:27.866Z,9.10
2019-05-30T23:54:56.351Z,8.47
2019-05-30T23:57:23.465Z,8.43
2019-05-30T23:59:50.621Z,8.30
